createdAt,value
2016-06-22T00:00:31.701Z,99.99
2016-06-22T00:01:31.095Z,99.99
2016-06-22T00:02:31.725Z,99.99
2016-06-22T00:03:31.746Z,99.99
2016-06-22T00:04:31.778Z,99.99
2016-06-22T00:05:31.801Z,99.99
2016-06-22T00:06:31.823Z,99.99
2016-06-22T00:07:31.238Z,99.99
2016-06-22T00:08:31.868Z,99.99
2016-06-22T00:09:31.926Z,99.99
2016-06-22T00:10:31.293Z,99.99
2016-06-22T00:11:31.350Z,99.99
2016-06-22T00:12:31.355Z,99.99
2016-06-22T00:13:31.984Z,99.99
2016-06-22T00:14:32.019Z,99.99
2016-06-22T00:15:32.037Z,99.99
2016-06-22T00:16:31.447Z,99.99
2016-06-22T00:17:32.087Z,99.99
2016-06-22T00:18:32.155Z,99.99
2016-06-22T00:19:32.405Z,99.99
2016-06-22T00:20:32.157Z,99.99
2016-06-22T00:21:32.176Z,99.99
2016-06-22T00:22:31.594Z,99.99
2016-06-22T00:23:32.226Z,99.99
2016-06-22T00:24:32.245Z,99.99
2016-06-22T00:25:32.257Z,99.99
2016-06-22T00:26:31.695Z,99.99
2016-06-22T00:27:32.314Z,99.99
2016-06-22T00:28:32.337Z,99.99
2016-06-22T00:29:32.362Z,99.99
2016-06-22T00:30:32.400Z,99.99
2016-06-22T00:31:31.795Z,99.99
2016-06-22T00:32:32.430Z,99.99
2016-06-22T00:33:32.463Z,99.99
2016-06-22T00:34:31.886Z,99.99
2016-06-22T00:35:32.529Z,99.99
2016-06-22T00:36:32.533Z,99.99
2016-06-22T00:37:32.552Z,99.99
2016-06-22T00:38:32.579Z,99.99
2016-06-22T00:39:31.999Z,99.99
2016-06-22T00:40:32.663Z,99.99
2016-06-22T00:41:32.038Z,99.99
2016-06-22T00:42:32.668Z,99.99
2016-06-22T00:43:32.218Z,99.99
2016-06-22T00:44:32.708Z,99.99
2016-06-22T00:45:32.157Z,99.99
2016-06-22T00:46:32.146Z,99.99
2016-06-22T00:47:32.821Z,99.99
2016-06-22T00:48:32.798Z,99.99
2016-06-22T00:49:32.217Z,99.99
2016-06-22T00:50:32.853Z,99.99
2016-06-22T00:51:32.929Z,99.99
2016-06-22T00:52:32.902Z,99.99
2016-06-22T00:53:32.310Z,99.99
2016-06-22T00:54:32.941Z,99.99
2016-06-22T00:55:32.959Z,99.99
2016-06-22T00:56:32.997Z,99.99
2016-06-22T00:57:32.409Z,99.99
2016-06-22T00:58:32.436Z,99.99
2016-06-22T00:59:32.450Z,99.99
2016-06-22T01:00:32.530Z,99.99
2016-06-22T01:01:33.112Z,99.99
2016-06-22T01:02:33.139Z,99.99
2016-06-22T01:03:32.548Z,99.99
2016-06-22T01:04:32.555Z,99.99
2016-06-22T01:05:32.646Z,99.99
2016-06-22T01:06:33.248Z,99.99
2016-06-22T01:07:33.340Z,99.99
2016-06-22T01:08:33.276Z,99.99
2016-06-22T01:09:32.745Z,99.99
2016-06-22T01:10:33.321Z,99.99
2016-06-22T01:11:32.824Z,99.99
2016-06-22T01:12:33.368Z,99.99
2016-06-22T01:13:33.379Z,99.99
2016-06-22T01:14:33.405Z,99.99
2016-06-22T01:15:33.429Z,99.99
2016-06-22T01:16:32.937Z,99.99
2016-06-22T01:17:32.872Z,99.99
2016-06-22T01:18:32.893Z,99.99
2016-06-22T01:19:32.911Z,99.99
2016-06-22T01:20:32.944Z,99.99
2016-06-22T01:21:33.581Z,99.99
2016-06-22T01:22:33.001Z,99.99
2016-06-22T01:23:33.014Z,99.99
2016-06-22T01:24:33.037Z,99.99
2016-06-22T01:25:33.662Z,99.99
2016-06-22T01:26:33.081Z,99.99
2016-06-22T01:27:33.733Z,99.99
2016-06-22T01:28:33.137Z,99.99
2016-06-22T01:29:33.753Z,99.99
2016-06-22T01:30:33.175Z,99.99
2016-06-22T01:31:33.197Z,99.99
2016-06-22T01:32:33.854Z,99.99
2016-06-22T01:33:33.243Z,99.99
2016-06-22T01:34:33.866Z,99.99
2016-06-22T01:35:33.298Z,99.99
2016-06-22T01:36:33.930Z,99.99
2016-06-22T01:37:33.325Z,99.99
2016-06-22T01:38:33.975Z,99.99
2016-06-22T01:39:33.383Z,99.99
2016-06-22T01:40:34.009Z,99.99
2016-06-22T01:41:33.431Z,99.99
2016-06-22T01:42:33.446Z,99.99
2016-06-22T01:43:33.475Z,99.99
2016-06-22T01:44:34.120Z,99.99
2016-06-22T01:45:34.142Z,99.99
2016-06-22T01:46:34.155Z,99.99
2016-06-22T01:47:34.192Z,99.99
2016-06-22T01:48:34.199Z,99.99
2016-06-22T01:49:33.607Z,99.99
2016-06-22T01:50:34.263Z,99.99
2016-06-22T01:51:34.268Z,99.99
2016-06-22T01:52:33.675Z,99.99
2016-06-22T01:53:33.714Z,99.99
2016-06-22T01:54:33.728Z,99.99
2016-06-22T01:55:33.745Z,99.99
2016-06-22T01:56:34.396Z,99.99
2016-06-22T01:57:34.411Z,99.99
2016-06-22T01:58:33.819Z,99.99
2016-06-22T01:59:34.569Z,99.99
2016-06-22T02:00:34.486Z,99.99
2016-06-22T02:01:34.517Z,99.99
2016-06-22T02:02:33.919Z,99.99
2016-06-22T02:03:33.943Z,99.99
2016-06-22T02:04:34.558Z,99.99
2016-06-22T02:05:33.993Z,99.99
2016-06-22T02:06:34.017Z,99.99
2016-06-22T02:07:34.645Z,99.99
2016-06-22T02:08:34.663Z,99.99
2016-06-22T02:09:34.682Z,99.99
2016-06-22T02:10:34.109Z,99.99
2016-06-22T02:11:34.739Z,99.99
2016-06-22T02:12:34.804Z,99.99
2016-06-22T02:13:34.779Z,99.99
2016-06-22T02:14:34.800Z,99.99
2016-06-22T02:15:34.226Z,99.99
2016-06-22T02:16:34.845Z,99.99
2016-06-22T02:17:34.891Z,99.99
2016-06-22T02:18:34.910Z,99.99
2016-06-22T02:19:35.072Z,99.99
2016-06-22T02:20:34.342Z,99.99
2016-06-22T02:21:34.999Z,99.99
2016-06-22T02:22:34.986Z,99.99
2016-06-22T02:23:34.398Z,99.99
2016-06-22T02:24:34.432Z,99.99
2016-06-22T02:25:34.455Z,99.99
2016-06-22T02:26:34.529Z,99.99
2016-06-22T02:27:35.133Z,99.99
2016-06-22T02:28:34.588Z,99.99
2016-06-22T02:29:35.153Z,99.99
2016-06-22T02:30:35.243Z,99.99
2016-06-22T02:31:35.198Z,99.99
2016-06-22T02:32:35.271Z,99.99
2016-06-22T02:33:34.634Z,99.99
2016-06-22T02:34:35.365Z,99.99
2016-06-22T02:35:35.301Z,99.99
2016-06-22T02:36:35.331Z,99.99
2016-06-22T02:37:35.348Z,99.99
2016-06-22T02:38:35.354Z,99.99
2016-06-22T02:39:35.385Z,99.99
2016-06-22T02:40:35.399Z,99.99
2016-06-22T02:41:34.821Z,99.99
2016-06-22T02:42:35.445Z,99.99
2016-06-22T02:43:35.509Z,99.99
2016-06-22T02:44:35.497Z,99.99
2016-06-22T02:45:35.526Z,99.99
2016-06-22T02:46:35.544Z,99.99
2016-06-22T02:47:35.569Z,99.99
2016-06-22T02:48:35.598Z,99.99
2016-06-22T02:49:35.607Z,99.99
2016-06-22T02:50:35.625Z,99.99
2016-06-22T02:51:35.656Z,99.99
2016-06-22T02:52:35.713Z,99.99
2016-06-22T02:53:35.698Z,99.99
2016-06-22T02:54:35.742Z,99.99
2016-06-22T02:55:35.762Z,99.99
2016-06-22T02:56:35.209Z,99.99
2016-06-22T02:57:35.792Z,99.99
2016-06-22T02:58:35.207Z,99.99
2016-06-22T02:59:35.845Z,99.99
2016-06-22T03:00:35.873Z,99.99
2016-06-22T03:01:35.883Z,99.99
2016-06-22T03:02:35.302Z,99.99
2016-06-22T03:03:35.936Z,99.99
2016-06-22T03:04:35.947Z,99.99
2016-06-22T03:05:35.362Z,99.99
2016-06-22T03:06:35.423Z,99.99
2016-06-22T03:07:36.021Z,99.99
2016-06-22T03:08:35.441Z,99.99
2016-06-22T03:09:36.131Z,99.99
2016-06-22T03:10:36.097Z,99.99
2016-06-22T03:11:35.507Z,99.99
2016-06-22T03:12:35.530Z,99.99
2016-06-22T03:13:36.157Z,99.99
2016-06-22T03:14:36.195Z,99.99
2016-06-22T03:15:35.593Z,99.99
2016-06-22T03:16:36.242Z,99.99
2016-06-22T03:17:35.637Z,99.99
2016-06-22T03:18:36.274Z,99.99
2016-06-22T03:19:36.295Z,99.99
2016-06-22T03:20:35.719Z,99.99
2016-06-22T03:21:36.361Z,99.99
2016-06-22T03:22:36.367Z,99.99
2016-06-22T03:23:36.395Z,99.99
2016-06-22T03:24:36.416Z,99.99
2016-06-22T03:25:36.433Z,99.99
2016-06-22T03:26:35.853Z,99.99
2016-06-22T03:27:36.498Z,99.99
2016-06-22T03:28:36.710Z,99.99
2016-06-22T03:29:36.781Z,99.99
2016-06-22T03:30:36.604Z,99.99
2016-06-22T03:31:36.162Z,99.99
2016-06-22T03:32:36.751Z,99.99
2016-06-22T03:33:36.165Z,99.99
2016-06-22T03:34:36.744Z,99.99
2016-06-22T03:35:36.790Z,99.99
2016-06-22T03:36:36.801Z,99.99
2016-06-22T03:37:36.808Z,99.99
2016-06-22T03:38:36.892Z,99.99
2016-06-22T03:39:36.753Z,99.99
2016-06-22T03:40:36.877Z,99.99
2016-06-22T03:41:36.819Z,99.99
2016-06-22T03:42:36.905Z,99.99
2016-06-22T03:43:36.853Z,99.99
2016-06-22T03:44:36.265Z,99.99
2016-06-22T03:45:36.916Z,99.99
2016-06-22T03:46:36.311Z,99.99
2016-06-22T03:47:36.962Z,99.99
2016-06-22T03:48:36.979Z,99.99
2016-06-22T03:49:36.384Z,99.99
2016-06-22T03:50:36.401Z,99.99
2016-06-22T03:51:37.059Z,99.99
2016-06-22T03:52:36.444Z,99.99
2016-06-22T03:53:37.141Z,99.99
2016-06-22T03:54:37.112Z,99.99
2016-06-22T03:55:37.127Z,99.99
2016-06-22T03:56:37.152Z,99.99
2016-06-22T03:57:36.571Z,99.99
2016-06-22T03:58:37.194Z,99.99
2016-06-22T03:59:37.221Z,99.99
2016-06-22T04:00:36.641Z,99.99
2016-06-22T04:01:37.280Z,99.99
2016-06-22T04:02:37.358Z,99.99
2016-06-22T04:03:37.331Z,99.99
2016-06-22T04:04:37.445Z,99.99
2016-06-22T04:05:37.381Z,99.99
2016-06-22T04:06:37.385Z,99.99
2016-06-22T04:07:37.399Z,99.99
2016-06-22T04:08:36.829Z,99.99
2016-06-22T04:09:37.455Z,99.99
2016-06-22T04:10:36.881Z,99.99
2016-06-22T04:11:36.904Z,99.99
2016-06-22T04:12:37.539Z,99.99
2016-06-22T04:13:37.547Z,99.99
2016-06-22T04:14:36.960Z,99.99
2016-06-22T04:15:36.997Z,99.99
2016-06-22T04:16:37.630Z,99.99
2016-06-22T04:17:37.644Z,99.99
2016-06-22T04:18:37.710Z,99.99
2016-06-22T04:19:37.078Z,99.99
2016-06-22T04:20:37.719Z,99.99
2016-06-22T04:21:37.121Z,99.99
2016-06-22T04:22:37.750Z,99.99
2016-06-22T04:23:37.787Z,99.99
2016-06-22T04:24:37.802Z,99.99
2016-06-22T04:25:37.218Z,99.99
2016-06-22T04:26:37.241Z,99.99
2016-06-22T04:27:37.865Z,99.99
2016-06-22T04:28:37.285Z,99.99
2016-06-22T04:29:37.322Z,99.99
2016-06-22T04:30:37.338Z,99.99
2016-06-22T04:31:37.967Z,99.99
2016-06-22T04:32:37.990Z,99.99
2016-06-22T04:33:38.007Z,99.99
2016-06-22T04:34:38.037Z,99.99
2016-06-22T04:35:38.073Z,99.99
2016-06-22T04:36:38.075Z,99.99
2016-06-22T04:37:38.108Z,99.99
2016-06-22T04:38:37.517Z,99.99
2016-06-22T04:39:37.556Z,99.99
2016-06-22T04:40:37.579Z,99.99
2016-06-22T04:41:37.622Z,99.99
2016-06-22T04:42:37.616Z,99.99
2016-06-22T04:43:38.300Z,99.99
2016-06-22T04:44:38.282Z,99.99
2016-06-22T04:45:38.318Z,99.99
2016-06-22T04:46:38.316Z,99.99
2016-06-22T04:47:38.346Z,99.99
2016-06-22T04:48:38.390Z,99.99
2016-06-22T04:49:38.402Z,99.99
2016-06-22T04:50:37.810Z,99.99
2016-06-22T04:51:37.828Z,99.99
2016-06-22T04:52:37.860Z,99.99
2016-06-22T04:53:37.887Z,99.99
2016-06-22T04:54:37.905Z,99.99
2016-06-22T04:55:37.939Z,99.99
2016-06-22T04:56:37.954Z,99.99
2016-06-22T04:57:38.001Z,99.99
2016-06-22T04:58:38.628Z,99.99
2016-06-22T04:59:38.039Z,99.99
2016-06-22T05:00:38.663Z,99.99
2016-06-22T05:01:38.061Z,99.99
2016-06-22T05:02:38.098Z,99.99
2016-06-22T05:03:38.728Z,99.99
2016-06-22T05:04:38.244Z,99.99
2016-06-22T05:05:38.170Z,99.99
2016-06-22T05:06:38.818Z,99.99
2016-06-22T05:07:38.818Z,99.99
2016-06-22T05:08:38.296Z,99.99
2016-06-22T05:09:38.870Z,99.99
2016-06-22T05:10:38.311Z,99.99
2016-06-22T05:11:38.316Z,99.99
2016-06-22T05:12:38.391Z,99.99
2016-06-22T05:13:38.347Z,99.99
2016-06-22T05:14:38.989Z,98.58
2016-06-22T05:15:38.396Z,98.1
2016-06-22T05:16:38.425Z,97.28
2016-06-22T05:17:38.456Z,96.31
2016-06-22T05:18:39.146Z,95.93
2016-06-22T05:19:38.521Z,94.38
2016-06-22T05:20:39.145Z,93.71
2016-06-22T05:21:39.249Z,92.74
2016-06-22T05:22:39.195Z,93.47
2016-06-22T05:23:39.228Z,92.41
2016-06-22T05:24:39.241Z,91.83
2016-06-22T05:25:38.654Z,91.53
2016-06-22T05:26:39.286Z,92.02
2016-06-22T05:27:39.339Z,92.65
2016-06-22T05:28:39.339Z,93.42
2016-06-22T05:29:38.761Z,93.62
2016-06-22T05:30:39.517Z,94.58
2016-06-22T05:31:39.409Z,95.79
2016-06-22T05:32:39.447Z,96.08
2016-06-22T05:33:39.476Z,96.75
2016-06-22T05:34:39.598Z,97.81
2016-06-22T05:35:39.526Z,98.73
2016-06-22T05:36:38.927Z,99.99
2016-06-22T05:37:38.969Z,99.99
2016-06-22T05:38:39.597Z,99.99
2016-06-22T05:39:39.617Z,99.99
2016-06-22T05:40:39.652Z,99.99
2016-06-22T05:41:39.691Z,99.99
2016-06-22T05:42:39.138Z,99.99
2016-06-22T05:43:39.128Z,99.99
2016-06-22T05:44:39.140Z,99.99
2016-06-22T05:45:39.253Z,99.99
2016-06-22T05:46:39.793Z,99.99
2016-06-22T05:47:39.222Z,99.99
2016-06-22T05:48:39.835Z,99.99
2016-06-22T05:49:39.888Z,99.99
2016-06-22T05:50:39.308Z,99.99
2016-06-22T05:51:39.312Z,99.99
2016-06-22T05:52:39.953Z,99.99
2016-06-22T05:53:39.973Z,99.99
2016-06-22T05:54:39.393Z,99.99
2016-06-22T05:55:39.421Z,99.99
2016-06-22T05:56:40.038Z,99.99
2016-06-22T05:57:40.076Z,99.99
2016-06-22T05:58:40.101Z,99.99
2016-06-22T05:59:40.105Z,99.99
2016-06-22T06:00:39.524Z,99.99
2016-06-22T06:01:39.554Z,99.99
2016-06-22T06:02:39.579Z,99.99
2016-06-22T06:03:40.214Z,99.99
2016-06-22T06:04:40.249Z,99.99
2016-06-22T06:05:39.645Z,99.99
2016-06-22T06:06:40.282Z,99.99
2016-06-22T06:07:40.313Z,99.99
2016-06-22T06:08:40.335Z,99.99
2016-06-22T06:09:40.365Z,99.99
2016-06-22T06:10:40.400Z,99.99
2016-06-22T06:11:39.799Z,99.99
2016-06-22T06:12:40.426Z,99.99
2016-06-22T06:13:40.457Z,99.99
2016-06-22T06:14:39.867Z,99.99
2016-06-22T06:15:39.890Z,99.99
2016-06-22T06:16:40.529Z,99.99
2016-06-22T06:17:40.546Z,99.99
2016-06-22T06:18:40.581Z,99.99
2016-06-22T06:19:40.602Z,99.99
2016-06-22T06:20:40.014Z,99.99
2016-06-22T06:21:40.038Z,99.99
2016-06-22T06:22:40.720Z,99.99
2016-06-22T06:23:40.686Z,99.99
2016-06-22T06:24:40.115Z,99.99
2016-06-22T06:25:40.735Z,99.99
2016-06-22T06:26:40.774Z,99.99
2016-06-22T06:27:40.184Z,99.99
2016-06-22T06:28:40.819Z,99.99
2016-06-22T06:29:40.231Z,99.99
2016-06-22T06:30:40.257Z,99.99
2016-06-22T06:31:40.279Z,99.99
2016-06-22T06:32:40.301Z,99.99
2016-06-22T06:33:40.999Z,97.81
2016-06-22T06:34:40.967Z,95.01
2016-06-22T06:35:41.007Z,93.13
2016-06-22T06:36:41.009Z,91.3
2016-06-22T06:37:40.416Z,90.14
2016-06-22T06:38:41.064Z,89.27
2016-06-22T06:39:40.487Z,85.64
2016-06-22T06:40:41.143Z,83.22
2016-06-22T06:41:41.135Z,78.03
2016-06-22T06:42:40.559Z,73.69
2016-06-22T06:43:41.179Z,70.47
2016-06-22T06:44:40.635Z,66.27
2016-06-22T06:45:41.240Z,64.75
2016-06-22T06:46:41.297Z,61.8
2016-06-22T06:47:40.789Z,59.11
2016-06-22T06:48:41.318Z,54.72
2016-06-22T06:49:40.819Z,52.95
2016-06-22T06:50:41.378Z,51.73
2016-06-22T06:51:41.414Z,52.12
2016-06-22T06:52:41.432Z,51.9
2016-06-22T06:53:41.507Z,53.24
2016-06-22T06:54:41.480Z,54.55
2016-06-22T06:55:41.561Z,56.45
2016-06-22T06:56:41.551Z,57.87
2016-06-22T06:57:41.584Z,59.69
2016-06-22T06:58:41.008Z,60.54
2016-06-22T06:59:41.641Z,61.77
2016-06-22T07:00:41.667Z,62.23
2016-06-22T07:01:41.692Z,63.17
2016-06-22T07:02:41.770Z,62.19
2016-06-22T07:03:41.134Z,62.98
2016-06-22T07:04:41.162Z,62.85
2016-06-22T07:05:41.210Z,63.43
2016-06-22T07:06:41.835Z,64.47
2016-06-22T07:07:41.868Z,65.05
2016-06-22T07:08:41.899Z,65.98
2016-06-22T07:09:41.325Z,66.75
2016-06-22T07:10:41.951Z,67.69
2016-06-22T07:11:41.980Z,68.18
2016-06-22T07:12:42.019Z,68.91
2016-06-22T07:13:42.062Z,68.43
2016-06-22T07:14:41.459Z,67.85
2016-06-22T07:15:42.083Z,66.11
2016-06-22T07:16:42.110Z,65.24
2016-06-22T07:17:42.338Z,66.78
2016-06-22T07:18:42.186Z,66.34
2016-06-22T07:19:42.869Z,66.24
2016-06-22T07:20:41.661Z,67.66
2016-06-22T07:21:43.051Z,68.24
2016-06-22T07:22:42.298Z,68.24
2016-06-22T07:23:42.317Z,67.11
2016-06-22T07:24:41.925Z,67.11
2016-06-22T07:25:42.079Z,66.24
2016-06-22T07:26:42.405Z,66.05
2016-06-22T07:27:42.589Z,65.17
2016-06-22T07:28:41.947Z,64.89
2016-06-22T07:29:41.885Z,64.98
2016-06-22T07:30:41.919Z,64.92
2016-06-22T07:31:41.950Z,65.59
2016-06-22T07:32:42.585Z,65.59
2016-06-22T07:33:41.983Z,65.01
2016-06-22T07:34:42.671Z,65.01
2016-06-22T07:35:42.841Z,65.4
2016-06-22T07:36:42.692Z,64.82
2016-06-22T07:37:42.823Z,64.47
2016-06-22T07:38:42.957Z,63.3
2016-06-22T07:39:42.205Z,60.45
2016-06-22T07:40:43.037Z,56.72
2016-06-22T07:41:42.832Z,55.03
2016-06-22T07:42:42.861Z,55.15
2016-06-22T07:43:42.895Z,53.3
2016-06-22T07:44:42.315Z,51.19
2016-06-22T07:45:42.947Z,49.51
2016-06-22T07:46:42.357Z,46.53
2016-06-22T07:47:42.396Z,45.09
2016-06-22T07:48:42.424Z,44.74
2016-06-22T07:49:43.131Z,42.64
2016-06-22T07:50:43.095Z,38.68
2016-06-22T07:51:42.536Z,36.24
2016-06-22T07:52:43.162Z,35.06
2016-06-22T07:53:43.209Z,34.59
2016-06-22T07:54:43.232Z,32.74
2016-06-22T07:55:43.261Z,31.69
2016-06-22T07:56:43.282Z,30.22
2016-06-22T07:57:42.715Z,29.3
2016-06-22T07:58:42.750Z,27.64
2016-06-22T07:59:43.376Z,25.99
2016-06-22T08:00:43.422Z,25.13
2016-06-22T08:01:42.846Z,26.33
2016-06-22T08:02:42.879Z,27.67
2016-06-22T08:03:43.519Z,27.94
2016-06-22T08:04:43.556Z,28.5
2016-06-22T08:05:42.995Z,30.34
2016-06-22T08:06:43.638Z,31.28
2016-06-22T08:07:43.157Z,32.12
2016-06-22T08:08:43.085Z,34.92
2016-06-22T08:09:43.130Z,36.25
2016-06-22T08:10:43.760Z,37.79
2016-06-22T08:11:43.297Z,37.87
2016-06-22T08:12:43.218Z,39.98
2016-06-22T08:13:43.258Z,41.02
2016-06-22T08:14:43.898Z,42.54
2016-06-22T08:15:43.939Z,43.98
2016-06-22T08:16:43.963Z,45.49
2016-06-22T08:17:43.998Z,46.08
2016-06-22T08:18:44.081Z,46.34
2016-06-22T08:19:44.094Z,46.64
2016-06-22T08:20:44.117Z,45.67
2016-06-22T08:21:43.540Z,44.32
2016-06-22T08:22:43.609Z,45.2
2016-06-22T08:23:44.213Z,45.2
2016-06-22T08:24:43.645Z,45.42
2016-06-22T08:25:44.283Z,44.44
2016-06-22T08:26:43.726Z,43.98
2016-06-22T08:27:44.321Z,45.61
2016-06-22T08:28:44.362Z,46.3
2016-06-22T08:29:43.789Z,44.95
2016-06-22T08:30:43.827Z,43.78
2016-06-22T08:31:43.861Z,43.98
2016-06-22T08:32:44.495Z,44.07
2016-06-22T08:33:43.917Z,45.61
2016-06-22T08:34:43.956Z,44.24
2016-06-22T08:35:44.586Z,44.54
2016-06-22T08:36:44.016Z,44.9
2016-06-22T08:37:44.049Z,45.29
2016-06-22T08:38:44.675Z,47.71
2016-06-22T08:39:44.120Z,47.59
2016-06-22T08:40:44.744Z,50.09
2016-06-22T08:41:44.767Z,49.58
2016-06-22T08:42:44.205Z,49.39
2016-06-22T08:43:44.847Z,48.41
2016-06-22T08:44:44.878Z,47.69
2016-06-22T08:45:44.913Z,46.83
2016-06-22T08:46:44.945Z,46.54
2016-06-22T08:47:44.496Z,48
2016-06-22T08:48:45.007Z,49.15
2016-06-22T08:49:45.035Z,49.99
2016-06-22T08:50:44.452Z,50.75
2016-06-22T08:51:45.082Z,51.01
2016-06-22T08:52:45.127Z,51.77
2016-06-22T08:53:45.162Z,53.13
2016-06-22T08:54:45.194Z,53.69
2016-06-22T08:55:45.246Z,55.14
2016-06-22T08:56:45.258Z,54.92
2016-06-22T08:57:45.281Z,54.82
2016-06-22T08:58:44.709Z,54.24
2016-06-22T08:59:45.354Z,52.98
2016-06-22T09:00:45.377Z,53.78
2016-06-22T09:01:45.407Z,53.71
2016-06-22T09:02:44.815Z,52.37
2016-06-22T09:03:45.459Z,52.19
2016-06-22T09:04:44.908Z,52.4
2016-06-22T09:05:45.672Z,50.46
2016-06-22T09:06:45.557Z,50.68
2016-06-22T09:07:45.620Z,51.07
2016-06-22T09:08:45.021Z,50.65
2016-06-22T09:09:45.058Z,50.75
2016-06-22T09:10:45.063Z,52.19
2016-06-22T09:11:45.707Z,53.32
2016-06-22T09:12:45.730Z,54.34
2016-06-22T09:13:45.770Z,55.69
2016-06-22T09:14:45.992Z,56.45
2016-06-22T09:15:45.218Z,57.42
2016-06-22T09:16:45.253Z,56.23
2016-06-22T09:17:45.278Z,56.15
2016-06-22T09:18:46.465Z,56.05
2016-06-22T09:19:45.334Z,54.82
2016-06-22T09:20:46.009Z,54.66
2016-06-22T09:21:46.048Z,54.39
2016-06-22T09:22:46.038Z,51.09
2016-06-22T09:23:46.050Z,51.87
2016-06-22T09:24:46.083Z,51.7
2016-06-22T09:25:45.509Z,52.37
2016-06-22T09:26:46.142Z,52.47
2016-06-22T09:27:46.172Z,51.99
2016-06-22T09:28:46.204Z,50.36
2016-06-22T09:29:45.623Z,50.58
2016-06-22T09:30:46.256Z,48.85
2016-06-22T09:31:46.342Z,48.97
2016-06-22T09:32:45.718Z,47.73
2016-06-22T09:33:46.347Z,47.66
2016-06-22T09:34:46.384Z,46.88
2016-06-22T09:35:46.403Z,46.61
2016-06-22T09:36:45.824Z,46.2
2016-06-22T09:37:46.504Z,47.46
2016-06-22T09:38:45.898Z,48.78
2016-06-22T09:39:46.176Z,49.56
2016-06-22T09:40:46.573Z,49.44
2016-06-22T09:41:46.594Z,48.88
2016-06-22T09:42:46.673Z,48.32
2016-06-22T09:43:46.656Z,47.63
2016-06-22T09:44:46.747Z,47.56
2016-06-22T09:45:46.716Z,46.59
2016-06-22T09:46:46.747Z,45.15
2016-06-22T09:47:46.782Z,45.64
2016-06-22T09:48:46.803Z,46
2016-06-22T09:49:46.839Z,46.7
2016-06-22T09:50:46.264Z,46.59
2016-06-22T09:51:46.293Z,46.97
2016-06-22T09:52:46.959Z,47.25
2016-06-22T09:53:47.059Z,48.22
2016-06-22T09:54:46.383Z,48.39
2016-06-22T09:55:47.021Z,48.85
2016-06-22T09:56:46.531Z,50.41
2016-06-22T09:57:47.075Z,50.19
2016-06-22T09:58:46.625Z,50.38
2016-06-22T09:59:47.146Z,51.17
2016-06-22T10:00:47.191Z,50.68
2016-06-22T10:01:46.608Z,50.09
2016-06-22T10:02:47.287Z,49.24
2016-06-22T10:03:46.742Z,49.17
2016-06-22T10:04:46.690Z,49.27
2016-06-22T10:05:47.353Z,48.41
2016-06-22T10:06:47.363Z,47.66
2016-06-22T10:07:46.815Z,48.14
2016-06-22T10:08:47.422Z,48.34
2016-06-22T10:09:47.503Z,47.97
2016-06-22T10:10:47.479Z,48.36
2016-06-22T10:11:47.522Z,45.65
2016-06-22T10:12:47.561Z,45.85
2016-06-22T10:14:47.026Z,46.61
2016-06-22T10:15:47.639Z,46.51
2016-06-22T10:16:47.675Z,47.58
2016-06-22T10:17:47.699Z,47.68
2016-06-22T10:18:47.754Z,46.02
2016-06-22T10:19:47.774Z,45.46
2016-06-22T10:20:47.803Z,44.31
2016-06-22T10:21:47.828Z,44.04
2016-06-22T10:22:47.243Z,43.65
2016-06-22T10:23:47.907Z,42.99
2016-06-22T10:24:47.316Z,43.96
2016-06-22T10:25:47.951Z,43.38
2016-06-22T10:26:47.387Z,43.87
2016-06-22T10:27:47.464Z,44.16
2016-06-22T10:28:48.053Z,44.92
2016-06-22T10:29:47.487Z,45.7
2016-06-22T10:30:47.511Z,45.48
2016-06-22T10:31:48.145Z,46.83
2016-06-22T10:32:47.574Z,47.39
2016-06-22T10:33:47.599Z,46.41
2016-06-22T10:34:48.238Z,44.56
2016-06-22T10:35:47.671Z,45.15
2016-06-22T10:36:48.296Z,46.04
2016-06-22T10:37:47.739Z,44.21
2016-06-22T10:38:47.766Z,44.87
2016-06-22T10:39:47.786Z,44.02
2016-06-22T10:40:47.823Z,43.32
2016-06-22T10:41:47.852Z,43.61
2016-06-22T10:42:47.908Z,43.99
2016-06-22T10:43:47.919Z,44.29
2016-06-22T10:44:48.578Z,45.56
2016-06-22T10:45:47.978Z,45.65
2016-06-22T10:46:48.005Z,44.29
2016-06-22T10:47:48.673Z,43.8
2016-06-22T10:48:48.080Z,43.73
2016-06-22T10:49:48.142Z,44.19
2016-06-22T10:50:48.745Z,43.82
2016-06-22T10:51:48.174Z,45.56
2016-06-22T10:52:48.836Z,45.92
2016-06-22T10:53:48.238Z,46.97
2016-06-22T10:54:48.269Z,46.86
2016-06-22T10:55:48.298Z,47.34
2016-06-22T10:56:48.341Z,46.17
2016-06-22T10:57:48.991Z,47.22
2016-06-22T10:58:49.106Z,47.52
2016-06-22T10:59:48.421Z,48.97
2016-06-22T11:00:49.064Z,49.05
2016-06-22T11:01:48.584Z,49.63
2016-06-22T11:02:48.520Z,50.58
2016-06-22T11:03:48.548Z,50.78
2016-06-22T11:04:49.193Z,50.29
2016-06-22T11:05:48.611Z,49.41
2016-06-22T11:06:49.459Z,50.6
2016-06-22T11:07:49.288Z,48.95
2016-06-22T11:08:48.862Z,47.9
2016-06-22T11:09:48.987Z,46.95
2016-06-22T11:10:49.557Z,48.22
2016-06-22T11:11:49.510Z,48.51
2016-06-22T11:12:49.575Z,46.54
2016-06-22T11:13:49.511Z,46.73
2016-06-22T11:14:49.500Z,47.73
2016-06-22T11:15:49.579Z,48.41
2016-06-22T11:16:49.613Z,47.53
2016-06-22T11:17:49.579Z,47.17
2016-06-22T11:18:49.778Z,46
2016-06-22T11:19:49.658Z,45.92
2016-06-22T11:20:49.673Z,46.12
2016-06-22T11:21:50.161Z,44.66
2016-06-22T11:22:49.751Z,44.07
2016-06-22T11:23:49.764Z,45.44
2016-06-22T11:24:49.803Z,45.22
2016-06-22T11:25:50.126Z,45.61
2016-06-22T11:26:49.857Z,45.81
2016-06-22T11:27:49.921Z,45.61
2016-06-22T11:28:49.939Z,46.49
2016-06-22T11:29:49.363Z,46.69
2016-06-22T11:30:49.390Z,44.93
2016-06-22T11:31:50.023Z,45.29
2016-06-22T11:32:49.449Z,46.76
2016-06-22T11:33:50.076Z,46.69
2016-06-22T11:34:50.122Z,44.44
2016-06-22T11:35:50.145Z,44.07
2016-06-22T11:36:49.569Z,44.27
2016-06-22T11:37:50.205Z,45.54
2016-06-22T11:38:49.635Z,46.12
2016-06-22T11:39:50.267Z,45.56
2016-06-22T11:40:50.313Z,45.26
2016-06-22T11:41:50.354Z,43.43
2016-06-22T11:42:50.361Z,42.75
2016-06-22T11:43:49.786Z,43.98
2016-06-22T11:44:50.426Z,43.39
2016-06-22T11:45:50.463Z,43.49
2016-06-22T11:46:50.480Z,44.56
2016-06-22T11:47:50.526Z,44.27
2016-06-22T11:48:50.549Z,45.26
2016-06-22T11:49:50.588Z,46.04
2016-06-22T11:50:50.619Z,45.95
2016-06-22T11:51:50.035Z,45.56
2016-06-22T11:52:50.675Z,44.31
2016-06-22T11:53:50.700Z,45.75
2016-06-22T11:54:50.739Z,45.95
2016-06-22T11:55:50.169Z,46.63
2016-06-22T11:56:50.198Z,45.65
2016-06-22T11:57:50.242Z,46.04
2016-06-22T11:58:50.273Z,47.41
2016-06-22T11:59:50.287Z,44.68
2016-06-22T12:00:50.981Z,45.25
2016-06-22T12:01:50.968Z,44.09
2016-06-22T12:02:50.986Z,45.17
2016-06-22T12:03:51.009Z,46.17
2016-06-22T12:04:51.062Z,42.48
2016-06-22T12:05:51.082Z,42.19
2016-06-22T12:06:51.109Z,43.36
2016-06-22T12:07:51.146Z,43.46
2016-06-22T12:08:50.571Z,45.12
2016-06-22T12:09:51.223Z,44.8
2016-06-22T12:10:51.273Z,45.36
2016-06-22T12:11:51.281Z,44.8
2016-06-22T12:12:50.765Z,45.95
2016-06-22T12:13:51.334Z,45.75
2016-06-22T12:14:51.441Z,46.24
2016-06-22T12:15:50.800Z,46.22
2016-06-22T12:16:50.864Z,46.61
2016-06-22T12:17:51.481Z,47.97
2016-06-22T12:18:50.926Z,46.12
2016-06-22T12:19:50.918Z,45.64
2016-06-22T12:20:51.559Z,45.65
2016-06-22T12:21:51.592Z,45.73
2016-06-22T12:22:51.019Z,45.44
2016-06-22T12:23:51.042Z,45.64
2016-06-22T12:24:51.672Z,46.14
2016-06-22T12:25:51.721Z,45.92
2016-06-22T12:26:51.146Z,46.12
2016-06-22T12:27:51.779Z,47.19
2016-06-22T12:28:51.195Z,46.14
2016-06-22T12:29:51.837Z,44.68
2016-06-22T12:30:51.877Z,44.78
2016-06-22T12:31:51.299Z,46.04
2016-06-22T12:32:51.975Z,46.83
2016-06-22T12:33:51.970Z,46.63
2016-06-22T12:34:51.991Z,45.95
2016-06-22T12:35:52.010Z,45.85
2016-06-22T12:36:51.449Z,45.09
2016-06-22T12:37:52.082Z,45.51
2016-06-22T12:38:52.114Z,43.24
2016-06-22T12:39:51.535Z,44.34
2016-06-22T12:40:52.189Z,45.12
2016-06-22T12:41:52.227Z,44.92
2016-06-22T12:42:52.234Z,44.21
2016-06-22T12:43:51.675Z,44.19
2016-06-22T12:44:52.306Z,45.15
2016-06-22T12:45:52.376Z,45.42
2016-06-22T12:46:52.366Z,45.61
2016-06-22T12:47:51.787Z,45.71
2016-06-22T12:48:51.825Z,46.69
2016-06-22T12:49:51.851Z,45.34
2016-06-22T12:50:52.507Z,45.34
2016-06-22T12:51:52.528Z,46.53
2016-06-22T12:52:52.544Z,44.78
2016-06-22T12:53:52.588Z,45.36
2016-06-22T12:54:52.014Z,44.12